sensor_id;sensor_type;location;lat;lon;timestamp;pressure;altitude;pressure_sealevel;temperature;humidity
50057;BME280;36875;49.468;11.200;2023-04-28T00:00:15;97919.41;;;18.93;40.87
50057;BME280;36875;49.468;11.200;2023-04-28T00:02:41;97919.41;;;18.93;41.19
50057;BME280;36875;49.468;11.200;2023-04-28T00:05:08;97917.47;;;18.94;40.71
50057;BME280;36875;49.468;11.200;2023-04-28T00:07:34;97920.50;;;18.92;40.73
50057;BME280;36875;49.468;11.200;2023-04-28T00:09:59;97923.22;;;18.92;40.86
50057;BME280;36875;49.468;11.200;2023-04-28T00:12:25;97923.22;;;18.92;40.80
50057;BME280;36875;49.468;11.200;2023-04-28T00:14:50;97918.88;;;18.91;40.68
50057;BME280;36875;49.468;11.200;2023-04-28T00:17:16;97899.06;;;18.85;41.02
50057;BME280;36875;49.468;11.200;2023-04-28T00:19:41;97887.97;;;18.82;40.98
50057;BME280;36875;49.468;11.200;2023-04-28T00:22:08;97909.09;;;18.90;40.95
50057;BME280;36875;49.468;11.200;2023-04-28T00:24:34;97902.84;;;18.90;40.68
50057;BME280;36875;49.468;11.200;2023-04-28T00:27:00;97892.81;;;18.85;40.78
50057;BME280;36875;49.468;11.200;2023-04-28T00:29:27;97892.22;;;18.88;40.87
50057;BME280;36875;49.468;11.200;2023-04-28T00:31:52;97873.53;;;18.81;40.86
50057;BME280;36875;49.468;11.200;2023-04-28T00:34:18;97888.66;;;18.87;40.58
50057;BME280;36875;49.468;11.200;2023-04-28T00:36:44;97878.91;;;18.86;40.84
50057;BME280;36875;49.468;11.200;2023-04-28T00:39:11;97881.63;;;18.86;41.14
50057;BME280;36875;49.468;11.200;2023-04-28T00:41:36;97877.59;;;18.84;40.96
50057;BME280;36875;49.468;11.200;2023-04-28T00:44:02;97880.00;;;18.85;40.82
50057;BME280;36875;49.468;11.200;2023-04-28T00:46:29;97875.66;;;18.84;40.89
50057;BME280;36875;49.468;11.200;2023-04-28T00:48:57;97871.31;;;18.83;40.93
50057;BME280;36875;49.468;11.200;2023-04-28T00:51:22;97877.59;;;18.84;40.63
50057;BME280;36875;49.468;11.200;2023-04-28T00:53:49;97870.22;;;18.84;40.83
50057;BME280;36875;49.468;11.200;2023-04-28T00:56:16;97855.34;;;18.77;40.70
50057;BME280;36875;49.468;11.200;2023-04-28T00:58:41;97870.50;;;18.83;41.10
50057;BME280;36875;49.468;11.200;2023-04-28T01:01:08;97871.31;;;18.83;41.09
50057;BME280;36875;49.468;11.200;2023-04-28T01:03:36;97867.00;;;18.82;40.87
50057;BME280;36875;49.468;11.200;2023-04-28T01:06:03;97855.84;;;18.79;40.82
50057;BME280;36875;49.468;11.200;2023-04-28T01:11:03;97852.00;;;18.80;40.55
50057;BME280;36875;49.468;11.200;2023-04-28T01:13:29;97849.28;;;18.80;40.83
50057;BME280;36875;49.468;11.200;2023-04-28T01:15:55;97852.81;;;18.80;40.68
50057;BME280;36875;49.468;11.200;2023-04-28T01:18:21;97839.50;;;18.79;40.52
50057;BME280;36875;49.468;11.200;2023-04-28T01:20:47;97847.69;;;18.79;40.98
50057;BME280;36875;49.468;11.200;2023-04-28T01:23:13;97835.13;;;18.78;40.81
50057;BME280;36875;49.468;11.200;2023-04-28T01:25:41;97833.00;;;18.75;40.67
50057;BME280;36875;49.468;11.200;2023-04-28T01:28:07;97840.59;;;18.78;40.75
50057;BME280;36875;49.468;11.200;2023-04-28T01:30:32;97844.44;;;18.77;40.77
50057;BME280;36875;49.468;11.200;2023-04-28T01:33:02;97836.56;;;18.75;40.85
50057;BME280;36875;49.468;11.200;2023-04-28T01:35:27;97827.56;;;18.75;41.02
50057;BME280;36875;49.468;11.200;2023-04-28T01:37:53;97833.00;;;18.75;40.86
50057;BME280;36875;49.468;11.200;2023-04-28T01:40:18;97843.91;;;18.75;40.66
50057;BME280;36875;49.468;11.200;2023-04-28T01:42:45;97831.72;;;18.72;41.08
50057;BME280;36875;49.468;11.200;2023-04-28T01:45:11;97824.84;;;18.75;40.66
50057;BME280;36875;49.468;11.200;2023-04-28T01:47:36;97834.94;;;18.74;40.97
50057;BME280;36875;49.468;11.200;2023-04-28T01:50:02;97829.78;;;18.73;40.77
50057;BME280;36875;49.468;11.200;2023-04-28T01:52:28;97831.72;;;18.72;40.85
50057;BME280;36875;49.468;11.200;2023-04-28T01:54:53;97820.81;;;18.72;40.92
50057;BME280;36875;49.468;11.200;2023-04-28T01:57:19;97817.28;;;18.72;40.67
50057;BME280;36875;49.468;11.200;2023-04-28T01:59:46;97825.47;;;18.72;40.97
50057;BME280;36875;49.468;11.200;2023-04-28T02:02:11;97817.59;;;18.70;40.48
50057;BME280;36875;49.468;11.200;2023-04-28T02:04:37;97811.34;;;18.69;40.71
50057;BME280;36875;49.468;11.200;2023-04-28T02:07:03;97808.63;;;18.69;40.55
50057;BME280;36875;49.468;11.200;2023-04-28T02:09:28;97809.72;;;18.68;40.61
50057;BME280;36875;49.468;11.200;2023-04-28T02:11:54;97811.34;;;18.69;40.98
50057;BME280;36875;49.468;11.200;2023-04-28T02:14:19;97808.63;;;18.69;40.50
50057;BME280;36875;49.468;11.200;2023-04-28T02:16:46;97799.94;;;18.67;40.86
50057;BME280;36875;49.468;11.200;2023-04-28T02:19:12;97794.47;;;18.67;40.48
50057;BME280;36875;49.468;11.200;2023-04-28T02:21:37;97806.47;;;18.66;40.65
50057;BME280;36875;49.468;11.200;2023-04-28T02:24:03;97808.13;;;18.67;40.91
50057;BME280;36875;49.468;11.200;2023-04-28T02:26:29;97805.69;;;18.66;40.52
50057;BME280;36875;49.468;11.200;2023-04-28T02:28:54;97799.25;;;18.62;40.86
50057;BME280;36875;49.468;11.200;2023-04-28T02:31:20;97805.69;;;18.66;40.44
50057;BME280;36875;49.468;11.200;2023-04-28T02:33:50;97799.72;;;18.64;40.76
50057;BME280;36875;49.468;11.200;2023-04-28T02:36:16;97798.59;;;18.65;40.83
50057;BME280;36875;49.468;11.200;2023-04-28T02:38:41;97799.72;;;18.64;40.68
50057;BME280;36875;49.468;11.200;2023-04-28T02:41:07;97797.81;;;18.64;40.70
50057;BME280;36875;49.468;11.200;2023-04-28T02:43:35;97801.63;;;18.63;40.91
50057;BME280;36875;49.468;11.200;2023-04-28T02:46:02;97795.38;;;18.63;40.91
50057;BME280;36875;49.468;11.200;2023-04-28T02:48:27;97795.38;;;18.63;40.95
50057;BME280;36875;49.468;11.200;2023-04-28T02:50:54;97783.69;;;18.62;40.51
50057;BME280;36875;49.468;11.200;2023-04-28T02:53:20;97782.06;;;18.61;40.48
50057;BME280;36875;49.468;11.200;2023-04-28T02:55:46;97779.34;;;18.61;40.83
50057;BME280;36875;49.468;11.200;2023-04-28T02:58:11;97776.59;;;18.61;40.67
50057;BME280;36875;49.468;11.200;2023-04-28T03:00:37;97775.81;;;18.61;40.64
50057;BME280;36875;49.468;11.200;2023-04-28T03:03:03;97772.09;;;18.57;40.80
50057;BME280;36875;49.468;11.200;2023-04-28T03:05:28;97762.78;;;18.58;40.49
50057;BME280;36875;49.468;11.200;2023-04-28T03:07:55;97764.41;;;18.59;40.87
50057;BME280;36875;49.468;11.200;2023-04-28T03:10:21;97767.13;;;18.59;40.67
50057;BME280;36875;49.468;11.200;2023-04-28T03:12:49;97767.44;;;18.57;40.81
50057;BME280;36875;49.468;11.200;2023-04-28T03:15:14;97764.72;;;18.57;40.77
50057;BME280;36875;49.468;11.200;2023-04-28T03:17:40;97761.97;;;18.57;40.43
50057;BME280;36875;49.468;11.200;2023-04-28T03:20:08;97756.53;;;18.57;40.63
50057;BME280;36875;49.468;11.200;2023-04-28T03:22:34;97751.09;;;18.57;40.74
50057;BME280;36875;49.468;11.200;2023-04-28T03:25:01;97750.28;;;18.57;40.85
50057;BME280;36875;49.468;11.200;2023-04-28T03:27:27;97745.13;;;18.55;40.48
50057;BME280;36875;49.468;11.200;2023-04-28T03:29:53;97744.34;;;18.55;40.56
50057;BME280;36875;49.468;11.200;2023-04-28T03:32:18;97732.59;;;18.54;40.70
50057;BME280;36875;49.468;11.200;2023-04-28T03:34:44;97726.06;;;18.55;40.70
50057;BME280;36875;49.468;11.200;2023-04-28T03:37:09;97724.44;;;18.54;40.42
50057;BME280;36875;49.468;11.200;2023-04-28T03:39:35;97727.97;;;18.55;40.76
50057;BME280;36875;49.468;11.200;2023-04-28T03:42:02;97723.63;;;18.54;40.87
50057;BME280;36875;49.468;11.200;2023-04-28T03:44:28;97720.09;;;18.53;40.87
50057;BME280;36875;49.468;11.200;2023-04-28T03:46:53;97719.28;;;18.53;40.55
50057;BME280;36875;49.468;11.200;2023-04-28T03:49:19;97715.75;;;18.52;40.95
50057;BME280;36875;49.468;11.200;2023-04-28T03:51:44;97718.47;;;18.52;40.50
50057;BME280;36875;49.468;11.200;2023-04-28T03:54:10;97720.41;;;18.52;40.49
50057;BME280;36875;49.468;11.200;2023-04-28T03:56:35;97718.28;;;18.48;40.70
50057;BME280;36875;49.468;11.200;2023-04-28T03:59:08;97726.66;;;18.52;40.45
50057;BME280;36875;49.468;11.200;2023-04-28T04:01:36;97717.19;;;18.49;40.83
50057;BME280;36875;49.468;11.200;2023-04-28T04:04:01;97709.00;;;18.49;40.32
50057;BME280;36875;49.468;11.200;2023-04-28T04:06:27;97707.38;;;18.48;40.84
50057;BME280;36875;49.468;11.200;2023-04-28T04:08:53;97702.25;;;18.47;40.53
50057;BME280;36875;49.468;11.200;2023-04-28T04:11:18;97694.06;;;18.47;40.59
50057;BME280;36875;49.468;11.200;2023-04-28T04:13:44;97698.72;;;18.46;40.70
50057;BME280;36875;49.468;11.200;2023-04-28T04:16:11;97706.59;;;18.48;40.70
50057;BME280;36875;49.468;11.200;2023-04-28T04:18:40;97699.50;;;18.47;40.74
50057;BME280;36875;49.468;11.200;2023-04-28T04:21:05;97693.56;;;18.45;40.54
50057;BME280;36875;49.468;11.200;2023-04-28T04:23:31;97700.66;;;18.46;40.50
50057;BME280;36875;49.468;11.200;2023-04-28T04:25:56;97695.19;;;18.46;40.86
50057;BME280;36875;49.468;11.200;2023-04-28T04:28:22;97683.78;;;18.44;40.67
50057;BME280;36875;49.468;11.200;2023-04-28T04:30:47;97687.63;;;18.43;40.65
50057;BME280;36875;49.468;11.200;2023-04-28T04:33:14;97690.03;;;18.44;40.54
50057;BME280;36875;49.468;11.200;2023-04-28T04:35:39;97688.56;;;18.38;40.81
50057;BME280;36875;49.468;11.200;2023-04-28T04:38:05;97695.78;;;18.43;40.51
50057;BME280;36875;49.468;11.200;2023-04-28T04:40:31;97704.28;;;18.41;40.44
50057;BME280;36875;49.468;11.200;2023-04-28T04:42:57;97698.53;;;18.43;40.42
50057;BME280;36875;49.468;11.200;2023-04-28T04:45:23;97707.50;;;18.43;40.93
50057;BME280;36875;49.468;11.200;2023-04-28T04:47:49;97703.16;;;18.42;40.87
50057;BME280;36875;49.468;11.200;2023-04-28T04:50:16;97696.94;;;18.42;40.61
50057;BME280;36875;49.468;11.200;2023-04-28T04:52:41;97696.94;;;18.42;40.81
50057;BME280;36875;49.468;11.200;2023-04-28T04:55:07;97689.94;;;18.36;40.54
50057;BME280;36875;49.468;11.200;2023-04-28T04:57:35;97702.69;;;18.40;40.63
50057;BME280;36875;49.468;11.200;2023-04-28T05:00:00;97705.41;;;18.40;40.51
50057;BME280;36875;49.468;11.200;2023-04-28T05:02:26;97706.19;;;18.41;40.44
50057;BME280;36875;49.468;11.200;2023-04-28T05:04:51;97698.03;;;18.41;40.44
50057;BME280;36875;49.468;11.200;2023-04-28T05:07:18;97702.97;;;18.39;40.78
50057;BME280;36875;49.468;11.200;2023-04-28T05:09:44;97708.41;;;18.39;40.72
50057;BME280;36875;49.468;11.200;2023-04-28T05:12:09;97699.94;;;18.40;40.84
50057;BME280;36875;49.468;11.200;2023-04-28T05:14:35;97700.25;;;18.39;40.69
50057;BME280;36875;49.468;11.200;2023-04-28T05:17:00;97683.50;;;18.32;40.50
50057;BME280;36875;49.468;11.200;2023-04-28T05:19:26;97698.31;;;18.39;40.62
50057;BME280;36875;49.468;11.200;2023-04-28T05:21:52;97700.25;;;18.39;40.83
50057;BME280;36875;49.468;11.200;2023-04-28T05:24:21;97702.97;;;18.39;40.71
50057;BME280;36875;49.468;11.200;2023-04-28T05:26:49;97709.22;;;18.39;40.81
50057;BME280;36875;49.468;11.200;2023-04-28T05:29:15;97702.78;;;18.35;40.51
50057;BME280;36875;49.468;11.200;2023-04-28T05:31:41;97708.41;;;18.39;40.44
50057;BME280;36875;49.468;11.200;2023-04-28T05:34:06;97702.97;;;18.39;40.50
50057;BME280;36875;49.468;11.200;2023-04-28T05:36:32;97711.44;;;18.37;40.42
50057;BME280;36875;49.468;11.200;2023-04-28T05:38:57;97707.94;;;18.37;40.42
50057;BME280;36875;49.468;11.200;2023-04-28T05:41:24;97710.66;;;18.37;40.53
50057;BME280;36875;49.468;11.200;2023-04-28T05:43:50;97715.31;;;18.36;40.56
50057;BME280;36875;49.468;11.200;2023-04-28T05:46:16;97709.84;;;18.36;40.46
50057;BME280;36875;49.468;11.200;2023-04-28T05:48:41;97714.47;;;18.36;40.59
50057;BME280;36875;49.468;11.200;2023-04-28T05:51:07;97712.88;;;18.35;40.63
50057;BME280;36875;49.468;11.200;2023-04-28T05:53:32;97717.19;;;18.36;40.57
50057;BME280;36875;49.468;11.200;2023-04-28T05:55:58;97705.50;;;18.35;40.57
50057;BME280;36875;49.468;11.200;2023-04-28T05:58:25;97707.44;;;18.35;40.80
50057;BME280;36875;49.468;11.200;2023-04-28T06:00:50;97707.44;;;18.35;40.38
50057;BME280;36875;49.468;11.200;2023-04-28T06:03:15;97712.03;;;18.34;40.93
50057;BME280;36875;49.468;11.200;2023-04-28T06:05:43;97708.22;;;18.35;40.60
50057;BME280;36875;49.468;11.200;2023-04-28T06:08:08;97707.44;;;18.35;41.13
50057;BME280;36875;49.468;11.200;2023-04-28T06:10:34;97701.16;;;18.34;40.93
50057;BME280;36875;49.468;11.200;2023-04-28T06:13:00;97707.44;;;18.35;41.05
50057;BME280;36875;49.468;11.200;2023-04-28T06:15:28;97708.81;;;18.32;40.79
50057;BME280;36875;49.468;11.200;2023-04-28T06:17:53;97698.56;;;18.29;40.98
50057;BME280;36875;49.468;11.200;2023-04-28T06:20:19;97700.16;;;18.30;40.86
50057;BME280;36875;49.468;11.200;2023-04-28T06:22:44;97711.53;;;18.32;41.00
50057;BME280;36875;49.468;11.200;2023-04-28T06:25:10;97711.06;;;18.30;40.78
50057;BME280;36875;49.468;11.200;2023-04-28T06:27:36;97708.81;;;18.32;40.83
50057;BME280;36875;49.468;11.200;2023-04-28T06:30:01;97702.88;;;18.30;41.13
50057;BME280;36875;49.468;11.200;2023-04-28T06:32:28;97701.78;;;18.31;41.37
50057;BME280;36875;49.468;11.200;2023-04-28T06:34:53;97712.69;;;18.31;41.18
50057;BME280;36875;49.468;11.200;2023-04-28T06:37:19;97708.81;;;18.32;41.34
50057;BME280;36875;49.468;11.200;2023-04-28T06:39:44;97706.41;;;18.30;41.10
50057;BME280;36875;49.468;11.200;2023-04-28T06:42:10;97706.41;;;18.30;41.40
50057;BME280;36875;49.468;11.200;2023-04-28T06:44:35;97707.22;;;18.31;41.27
50057;BME280;36875;49.468;11.200;2023-04-28T06:47:01;97699.84;;;18.32;41.27
50057;BME280;36875;49.468;11.200;2023-04-28T06:49:28;97690.06;;;18.30;41.30
50057;BME280;36875;49.468;11.200;2023-04-28T06:51:54;97687.66;;;18.29;41.36
50057;BME280;36875;49.468;11.200;2023-04-28T06:54:19;97686.53;;;18.30;41.05
50057;BME280;36875;49.468;11.200;2023-04-28T06:56:45;97686.84;;;18.28;41.29
50057;BME280;36875;49.468;11.200;2023-04-28T06:59:10;97681.09;;;18.30;41.23
50057;BME280;36875;49.468;11.200;2023-04-28T07:01:36;97680.28;;;18.29;41.64
50057;BME280;36875;49.468;11.200;2023-04-28T07:04:01;97682.22;;;18.29;41.51
50057;BME280;36875;49.468;11.200;2023-04-28T07:06:28;97683.00;;;18.29;41.22
50057;BME280;36875;49.468;11.200;2023-04-28T07:08:56;97681.38;;;18.28;41.50
50057;BME280;36875;49.468;11.200;2023-04-28T07:11:24;97687.66;;;18.29;41.32
50057;BME280;36875;49.468;11.200;2023-04-28T07:13:49;97675.75;;;18.25;41.52
50057;BME280;36875;49.468;11.200;2023-04-28T07:16:16;97677.56;;;18.29;41.29
50057;BME280;36875;49.468;11.200;2023-04-28T07:18:41;97684.09;;;18.28;41.60
50057;BME280;36875;49.468;11.200;2023-04-28T07:21:07;97684.09;;;18.28;41.48
50057;BME280;36875;49.468;11.200;2023-04-28T07:23:34;97677.38;;;18.26;41.86
50057;BME280;36875;49.468;11.200;2023-04-28T07:25:59;97679.00;;;18.27;41.59
50057;BME280;36875;49.468;11.200;2023-04-28T07:28:25;97686.03;;;18.28;41.75
50057;BME280;36875;49.468;11.200;2023-04-28T07:30:51;97687.66;;;18.29;42.08
50057;BME280;36875;49.468;11.200;2023-04-28T07:33:16;97678.59;;;18.20;41.65
50057;BME280;36875;49.468;11.200;2023-04-28T07:35:45;97691.78;;;18.26;42.02
50057;BME280;36875;49.468;11.200;2023-04-28T07:38:10;97691.78;;;18.26;42.00
50057;BME280;36875;49.468;11.200;2023-04-28T07:40:37;97689.06;;;18.26;41.74
50057;BME280;36875;49.468;11.200;2023-04-28T07:43:03;97704.59;;;18.26;41.96
50057;BME280;36875;49.468;11.200;2023-04-28T07:45:29;97707.31;;;18.26;41.87
50057;BME280;36875;49.468;11.200;2023-04-28T07:47:54;97695.44;;;18.22;41.88
50057;BME280;36875;49.468;11.200;2023-04-28T07:50:20;97704.91;;;18.24;41.72
50057;BME280;36875;49.468;11.200;2023-04-28T07:52:45;97699.16;;;18.26;41.87
50057;BME280;36875;49.468;11.200;2023-04-28T07:55:11;97702.69;;;18.26;42.34
50057;BME280;36875;49.468;11.200;2023-04-28T07:57:38;97699.94;;;18.26;42.14
50057;BME280;36875;49.468;11.200;2023-04-28T08:00:04;97710.56;;;18.28;42.13
50057;BME280;36875;49.468;11.200;2023-04-28T08:02:30;97705.19;;;18.23;42.16
50057;BME280;36875;49.468;11.200;2023-04-28T08:04:56;97709.47;;;18.29;42.45
50057;BME280;36875;49.468;11.200;2023-04-28T08:07:21;97709.53;;;18.38;42.62
50057;BME280;36875;49.468;11.200;2023-04-28T08:09:47;97714.88;;;18.43;42.55
50057;BME280;36875;49.468;11.200;2023-04-28T08:12:12;97715.25;;;18.50;42.44
50057;BME280;36875;49.468;11.200;2023-04-28T08:14:40;97711.44;;;18.51;42.43
50057;BME280;36875;49.468;11.200;2023-04-28T08:17:05;97714.03;;;18.56;42.66
50057;BME280;36875;49.468;11.200;2023-04-28T08:19:31;97713.22;;;18.69;43.23
50057;BME280;36875;49.468;11.200;2023-04-28T08:21:57;97714.38;;;18.77;42.92
50057;BME280;36875;49.468;11.200;2023-04-28T08:24:24;97708.72;;;18.87;43.58
50057;BME280;36875;49.468;11.200;2023-04-28T08:26:50;97703.84;;;18.98;43.41
50057;BME280;36875;49.468;11.200;2023-04-28T08:29:16;97700.50;;;19.01;43.21
50057;BME280;36875;49.468;11.200;2023-04-28T08:31:42;97699.06;;;19.04;43.34
50057;BME280;36875;49.468;11.200;2023-04-28T08:34:08;97687.84;;;19.05;43.41
50057;BME280;36875;49.468;11.200;2023-04-28T08:36:34;97672.91;;;19.03;43.62
50057;BME280;36875;49.468;11.200;2023-04-28T08:39:02;97667.00;;;19.10;43.45
50057;BME280;36875;49.468;11.200;2023-04-28T08:41:31;97667.91;;;19.19;43.66
50057;BME280;36875;49.468;11.200;2023-04-28T08:43:57;97666.81;;;19.29;43.53
50057;BME280;36875;49.468;11.200;2023-04-28T08:46:24;97655.59;;;19.30;43.46
50057;BME280;36875;49.468;11.200;2023-04-28T08:48:58;97646.94;;;19.37;43.49
50057;BME280;36875;49.468;11.200;2023-04-28T08:51:26;97643.75;;;19.35;43.59
50057;BME280;36875;49.468;11.200;2023-04-28T08:53:54;97641.63;;;19.32;43.82
50057;BME280;36875;49.468;11.200;2023-04-28T08:56:23;97633.78;;;19.30;43.63
50057;BME280;36875;49.468;11.200;2023-04-28T08:58:52;97638.41;;;19.30;43.65
50057;BME280;36875;49.468;11.200;2023-04-28T09:01:18;97637.00;;;19.32;43.83
50057;BME280;36875;49.468;11.200;2023-04-28T09:03:43;97646.28;;;19.31;43.70
50057;BME280;36875;49.468;11.200;2023-04-28T09:06:10;97635.38;;;19.31;43.61
50057;BME280;36875;49.468;11.200;2023-04-28T09:08:36;97647.91;;;19.32;43.67
50057;BME280;36875;49.468;11.200;2023-04-28T09:11:05;97652.09;;;19.38;43.53
50057;BME280;36875;49.468;11.200;2023-04-28T09:13:31;97653.09;;;19.42;43.59
50057;BME280;36875;49.468;11.200;2023-04-28T09:15:58;97643.47;;;19.45;43.90
50057;BME280;36875;49.468;11.200;2023-04-28T09:18:24;97639.78;;;19.41;43.67
50057;BME280;36875;49.468;11.200;2023-04-28T09:20:49;97646.28;;;19.31;44.26
50057;BME280;36875;49.468;11.200;2023-04-28T09:23:18;97634.41;;;19.27;44.21
50057;BME280;36875;49.468;11.200;2023-04-28T09:25:58;97636.63;;;19.25;44.49
50057;BME280;36875;49.468;11.200;2023-04-28T09:28:24;97647.41;;;19.30;44.52
50057;BME280;36875;49.468;11.200;2023-04-28T09:30:50;97643.44;;;19.36;44.51
50057;BME280;36875;49.468;11.200;2023-04-28T09:33:16;97647.63;;;19.42;44.08
50057;BME280;36875;49.468;11.200;2023-04-28T09:35:42;97651.94;;;19.35;44.86
50057;BME280;36875;49.468;11.200;2023-04-28T09:38:10;97655.59;;;19.30;44.62
50057;BME280;36875;49.468;11.200;2023-04-28T09:40:53;97655.59;;;19.30;44.82
50057;BME280;36875;49.468;11.200;2023-04-28T09:43:23;97654.34;;;19.36;45.19
50057;BME280;36875;49.468;11.200;2023-04-28T09:45:49;97657.19;;;19.31;45.15
50057;BME280;36875;49.468;11.200;2023-04-28T09:48:15;97658.81;;;19.32;45.40
50057;BME280;36875;49.468;11.200;2023-04-28T09:50:41;97652.22;;;19.33;45.25
50057;BME280;36875;49.468;11.200;2023-04-28T09:53:09;97659.81;;;19.36;45.23
50057;BME280;36875;49.468;11.200;2023-04-28T09:55:38;97640.56;;;19.41;45.28
50057;BME280;36875;49.468;11.200;2023-04-28T09:58:11;97634.47;;;19.44;45.03
50057;BME280;36875;49.468;11.200;2023-04-28T10:00:38;97649.44;;;19.47;45.36
50057;BME280;36875;49.468;11.200;2023-04-28T10:03:05;97645.22;;;19.41;45.10
50057;BME280;36875;49.468;11.200;2023-04-28T10:05:32;97650.50;;;19.37;45.54
50057;BME280;36875;49.468;11.200;2023-04-28T10:08:00;97643.59;;;19.40;45.65
50057;BME280;36875;49.468;11.200;2023-04-28T10:10:25;97631.25;;;19.42;45.45
50057;BME280;36875;49.468;11.200;2023-04-28T10:12:53;97617.56;;;19.65;45.69
50057;BME280;36875;49.468;11.200;2023-04-28T10:15:21;97611.72;;;20.07;44.13
50057;BME280;36875;49.468;11.200;2023-04-28T10:17:48;97609.69;;;20.38;43.30
50057;BME280;36875;49.468;11.200;2023-04-28T10:20:15;97617.09;;;20.55;43.21
50057;BME280;36875;49.468;11.200;2023-04-28T10:22:51;97609.56;;;20.70;42.63
50057;BME280;36875;49.468;11.200;2023-04-28T10:25:26;97603.28;;;20.78;42.42
50057;BME280;36875;49.468;11.200;2023-04-28T10:27:52;97599.72;;;20.86;42.31
50057;BME280;36875;49.468;11.200;2023-04-28T10:30:19;97584.75;;;20.92;42.10
50057;BME280;36875;49.468;11.200;2023-04-28T10:32:46;97580.25;;;20.88;42.26
50057;BME280;36875;49.468;11.200;2023-04-28T10:35:39;97583.63;;;20.32;43.31
50057;BME280;36875;49.468;11.200;2023-04-28T10:38:08;97598.09;;;20.15;44.17
50057;BME280;36875;49.468;11.200;2023-04-28T10:40:34;97592.78;;;20.10;44.15
50057;BME280;36875;49.468;11.200;2023-04-28T10:43:01;97585.25;;;20.07;44.52
50057;BME280;36875;49.468;11.200;2023-04-28T10:45:58;97587.47;;;20.05;44.50
50057;BME280;36875;49.468;11.200;2023-04-28T10:51:31;97590.72;;;20.07;44.58
50057;BME280;36875;49.468;11.200;2023-04-28T10:54:24;97596.16;;;20.07;44.41
50057;BME280;36875;49.468;11.200;2023-04-28T10:57:19;97595.81;;;19.91;45.11
50057;BME280;36875;49.468;11.200;2023-04-28T10:59:46;97596.56;;;19.83;45.36
50057;BME280;36875;49.468;11.200;2023-04-28T11:02:39;97603.16;;;19.73;45.72
50057;BME280;36875;49.468;11.200;2023-04-28T11:05:16;97595.56;;;19.70;46.16
50057;BME280;36875;49.468;11.200;2023-04-28T11:11:14;97593.13;;;19.60;46.17
50057;BME280;36875;49.468;11.200;2023-04-28T11:13:40;97584.44;;;19.58;46.71
50057;BME280;36875;49.468;11.200;2023-04-28T11:16:06;97582.84;;;19.57;46.50
50057;BME280;36875;49.468;11.200;2023-04-28T11:18:47;97591.81;;;19.57;46.73
50057;BME280;36875;49.468;11.200;2023-04-28T11:21:13;97579.75;;;19.50;46.79
50057;BME280;36875;49.468;11.200;2023-04-28T11:23:39;97593.75;;;19.57;46.73
50057;BME280;36875;49.468;11.200;2023-04-28T11:26:05;97599.69;;;19.59;47.18
50057;BME280;36875;49.468;11.200;2023-04-28T11:28:32;97593.78;;;19.65;47.04
50057;BME280;36875;49.468;11.200;2023-04-28T11:31:09;97594.75;;;19.70;46.98
50057;BME280;36875;49.468;11.200;2023-04-28T11:33:36;97591.13;;;19.74;46.34
50057;BME280;36875;49.468;11.200;2023-04-28T11:36:03;97600.53;;;19.68;46.35
50057;BME280;36875;49.468;11.200;2023-04-28T11:38:28;97592.81;;;19.61;46.87
50057;BME280;36875;49.468;11.200;2023-04-28T11:40:57;97597.78;;;19.59;46.67
50057;BME280;36875;49.468;11.200;2023-04-28T11:43:28;97609.19;;;19.61;47.29
50057;BME280;36875;49.468;11.200;2023-04-28T11:45:55;97606.78;;;19.60;47.26
50057;BME280;36875;49.468;11.200;2023-04-28T11:48:21;97592.94;;;19.56;47.22
50057;BME280;36875;49.468;11.200;2023-04-28T11:50:47;97584.41;;;19.49;47.45
50057;BME280;36875;49.468;11.200;2023-04-28T11:53:12;97590.53;;;19.55;47.50
50057;BME280;36875;49.468;11.200;2023-04-28T11:55:38;97595.50;;;19.53;47.55
50057;BME280;36875;49.468;11.200;2023-04-28T11:58:17;97600.00;;;19.49;47.79
50057;BME280;36875;49.468;11.200;2023-04-28T12:00:42;97600.91;;;19.44;47.82
50057;BME280;36875;49.468;11.200;2023-04-28T12:03:10;97601.59;;;19.50;47.67
50057;BME280;36875;49.468;11.200;2023-04-28T12:05:43;97588.06;;;19.44;47.85
50057;BME280;36875;49.468;11.200;2023-04-28T12:08:09;97594.72;;;19.52;47.74
50057;BME280;36875;49.468;11.200;2023-04-28T12:10:34;97597.94;;;19.54;47.92
50057;BME280;36875;49.468;11.200;2023-04-28T12:13:14;97582.84;;;19.57;47.91
50057;BME280;36875;49.468;11.200;2023-04-28T12:15:40;97577.84;;;19.59;47.80
50057;BME280;36875;49.468;11.200;2023-04-28T12:18:09;97581.91;;;19.61;47.60
50057;BME280;36875;49.468;11.200;2023-04-28T12:20:37;97576.91;;;19.63;47.50
50057;BME280;36875;49.468;11.200;2023-04-28T12:23:03;97580.13;;;19.65;47.21
50057;BME280;36875;49.468;11.200;2023-04-28T12:25:29;97593.59;;;19.62;47.09
50057;BME280;36875;49.468;11.200;2023-04-28T12:27:59;97589.13;;;19.66;46.95
50057;BME280;36875;49.468;11.200;2023-04-28T12:30:28;97594.09;;;19.64;47.45
50057;BME280;36875;49.468;11.200;2023-04-28T12:32:54;97582.84;;;19.57;47.50
50057;BME280;36875;49.468;11.200;2023-04-28T12:35:22;97580.56;;;19.50;48.02
50057;BME280;36875;49.468;11.200;2023-04-28T12:37:48;97579.63;;;19.55;48.01
50057;BME280;36875;49.468;11.200;2023-04-28T12:40:14;97579.63;;;19.55;48.00
50057;BME280;36875;49.468;11.200;2023-04-28T12:42:39;97583.00;;;19.60;47.70
50057;BME280;36875;49.468;11.200;2023-04-28T12:45:06;97579.16;;;19.61;47.54
50057;BME280;36875;49.468;11.200;2023-04-28T12:47:33;97585.41;;;19.62;47.53
50057;BME280;36875;49.468;11.200;2023-04-28T12:49:58;97585.91;;;19.64;47.42
50057;BME280;36875;49.468;11.200;2023-04-28T12:52:25;97588.63;;;19.64;47.24
50057;BME280;36875;49.468;11.200;2023-04-28T12:54:51;97580.94;;;19.66;47.07
50057;BME280;36875;49.468;11.200;2023-04-28T12:57:17;97570.81;;;19.67;46.98